sensor_id;sensor_type;location;lat;lon;timestamp;pressure;altitude;pressure_sealevel;temperature;humidity
63808;BME280;49961;43.970;22.868;2022-09-29T00:00:34;100349.66;;;16.00;100.00
63808;BME280;49961;43.970;22.868;2022-09-29T00:01:35;100441.56;;;16.54;100.00
63808;BME280;49961;43.970;22.868;2022-09-29T00:02:35;100442.81;;;16.53;100.00
63808;BME280;49961;43.970;22.868;2022-09-29T00:03:36;100386.81;;;16.15;100.00
63808;BME280;49961;43.970;22.868;2022-09-29T00:04:37;100446.56;;;16.50;100.00
63808;BME280;49961;43.970;22.868;2022-09-29T00:05:37;100431.59;;;16.39;100.00
63808;BME280;49961;43.970;22.868;2022-09-29T00:06:38;100442.88;;;16.44;100.00
63808;BME280;49961;43.970;22.868;2022-09-29T00:07:38;100443.34;;;16.43;100.00
63808;BME280;49961;43.970;22.868;2022-09-29T00:08:38;100450.19;;;16.42;100.00
63808;BME280;49961;43.970;22.868;2022-09-29T00:09:39;100442.28;;;16.40;100.00
63808;BME280;49961;43.970;22.868;2022-09-29T00:10:39;100439.16;;;16.38;100.00
63808;BME280;49961;43.970;22.868;2022-09-29T00:11:40;100434.69;;;16.32;100.00
63808;BME280;49961;43.970;22.868;2022-09-29T00:12:40;100442.59;;;16.33;100.00
63808;BME280;49961;43.970;22.868;2022-09-29T00:13:41;100445.13;;;16.31;100.00
63808;BME280;49961;43.970;22.868;2022-09-29T00:14:42;100437.94;;;16.30;100.00
63808;BME280;49961;43.970;22.868;2022-09-29T00:15:43;100440.94;;;16.27;100.00
63808;BME280;49961;43.970;22.868;2022-09-29T00:16:43;100432.25;;;16.25;100.00
63808;BME280;49961;43.970;22.868;2022-09-29T00:17:44;100437.53;;;16.23;100.00
63808;BME280;49961;43.970;22.868;2022-09-29T00:18:44;100432.13;;;16.19;100.00
63808;BME280;49961;43.970;22.868;2022-09-29T00:19:45;100435.41;;;16.18;100.00
63808;BME280;49961;43.970;22.868;2022-09-29T00:21:04;100379.75;;;15.73;100.00
63808;BME280;49961;43.970;22.868;2022-09-29T00:22:05;100435.28;;;16.12;100.00
63808;BME280;49961;43.970;22.868;2022-09-29T00:23:05;100437.78;;;16.10;100.00
63808;BME280;49961;43.970;22.868;2022-09-29T00:24:06;100360.09;;;15.58;100.00
63808;BME280;49961;43.970;22.868;2022-09-29T00:25:06;100423.53;;;15.99;100.00
63808;BME280;49961;43.970;22.868;2022-09-29T00:26:09;100428.66;;;16.01;100.00
63808;BME280;49961;43.970;22.868;2022-09-29T00:27:13;100426.19;;;16.03;100.00
63808;BME280;49961;43.970;22.868;2022-09-29T00:28:14;100429.91;;;16.00;100.00
63808;BME280;49961;43.970;22.868;2022-09-29T00:29:14;100429.91;;;16.00;100.00
63808;BME280;49961;43.970;22.868;2022-09-29T00:30:15;100425.56;;;15.99;100.00
63808;BME280;49961;43.970;22.868;2022-09-29T00:31:15;100426.03;;;15.97;100.00
63808;BME280;49961;43.970;22.868;2022-09-29T00:32:15;100422.97;;;15.95;100.00
63808;BME280;49961;43.970;22.868;2022-09-29T00:33:16;100418.31;;;15.92;100.00
63808;BME280;49961;43.970;22.868;2022-09-29T00:34:16;100418.78;;;15.91;100.00
63808;BME280;49961;43.970;22.868;2022-09-29T00:35:17;100414.16;;;15.88;100.00
63808;BME280;49961;43.970;22.868;2022-09-29T00:36:19;100415.06;;;15.85;100.00
63808;BME280;49961;43.970;22.868;2022-09-29T00:37:20;100415.25;;;15.81;100.00
63808;BME280;49961;43.970;22.868;2022-09-29T00:38:20;100417.44;;;15.77;100.00
63808;BME280;49961;43.970;22.868;2022-09-29T00:39:21;100423.50;;;15.76;100.00
63808;BME280;49961;43.970;22.868;2022-09-29T00:40:21;100408.16;;;15.71;100.00
63808;BME280;49961;43.970;22.868;2022-09-29T00:41:27;100412.81;;;15.74;100.00
63808;BME280;49961;43.970;22.868;2022-09-29T00:42:28;100416.53;;;15.71;100.00
63808;BME280;49961;43.970;22.868;2022-09-29T00:44:58;100367.19;;;15.27;100.00
63808;BME280;49961;43.970;22.868;2022-09-29T00:46:00;100380.69;;;15.28;100.00
63808;BME280;49961;43.970;22.868;2022-09-29T00:47:03;100429.63;;;15.56;100.00
63808;BME280;49961;43.970;22.868;2022-09-29T00:48:10;100430.41;;;15.57;100.00
63808;BME280;49961;43.970;22.868;2022-09-29T00:49:26;100425.91;;;15.59;100.00
63808;BME280;49961;43.970;22.868;2022-09-29T00:50:35;100420.00;;;15.57;100.00
63808;BME280;49961;43.970;22.868;2022-09-29T00:51:39;100431.97;;;15.58;100.00
63808;BME280;49961;43.970;22.868;2022-09-29T00:52:58;100431.63;;;15.56;100.00
63808;BME280;49961;43.970;22.868;2022-09-29T00:54:01;100432.88;;;15.55;100.00
63808;BME280;49961;43.970;22.868;2022-09-29T00:55:24;100430.09;;;15.55;100.00
63808;BME280;49961;43.970;22.868;2022-09-29T00:56:25;100432.13;;;15.54;100.00
63808;BME280;49961;43.970;22.868;2022-09-29T00:57:30;100428.09;;;15.55;100.00
63808;BME280;49961;43.970;22.868;2022-09-29T00:59:06;100420.81;;;15.49;100.00
63808;BME280;49961;43.970;22.868;2022-09-29T01:00:11;100414.31;;;15.43;100.00
63808;BME280;49961;43.970;22.868;2022-09-29T01:01:12;100425.47;;;15.52;100.00
63808;BME280;49961;43.970;22.868;2022-09-29T01:02:14;100295.13;;;14.66;100.00
63808;BME280;49961;43.970;22.868;2022-09-29T01:03:18;100420.81;;;15.49;100.00
63808;BME280;49961;43.970;22.868;2022-09-29T01:04:21;100421.28;;;15.47;100.00
63808;BME280;49961;43.970;22.868;2022-09-29T01:05:30;100415.25;;;15.40;100.00
63808;BME280;49961;43.970;22.868;2022-09-29T01:06:36;100414.66;;;15.36;100.00
63808;BME280;49961;43.970;22.868;2022-09-29T01:07:38;100418.38;;;15.42;100.00
63808;BME280;49961;43.970;22.868;2022-09-29T01:08:42;100427.50;;;15.42;100.00
63808;BME280;49961;43.970;22.868;2022-09-29T01:09:44;100428.28;;;15.43;100.00
63808;BME280;49961;43.970;22.868;2022-09-29T01:10:46;100406.88;;;15.31;100.00
63808;BME280;49961;43.970;22.868;2022-09-29T01:11:49;100425.78;;;15.45;100.00
63808;BME280;49961;43.970;22.868;2022-09-29T01:12:54;100421.44;;;15.44;100.00
63808;BME280;49961;43.970;22.868;2022-09-29T01:13:56;100428.41;;;15.48;100.00
63808;BME280;49961;43.970;22.868;2022-09-29T01:15:02;100339.22;;;14.94;100.00
63808;BME280;49961;43.970;22.868;2022-09-29T01:16:03;100421.25;;;15.56;100.00
63808;BME280;49961;43.970;22.868;2022-09-29T01:17:04;100386.75;;;15.36;100.00
63808;BME280;49961;43.970;22.868;2022-09-29T01:18:05;100413.16;;;15.58;100.00
63808;BME280;49961;43.970;22.868;2022-09-29T01:19:26;100431.50;;;15.59;100.00
63808;BME280;49961;43.970;22.868;2022-09-29T01:20:32;100416.28;;;15.60;100.00
63808;BME280;49961;43.970;22.868;2022-09-29T01:32:10;100414.75;;;15.59;100.00
63808;BME280;49961;43.970;22.868;2022-09-29T01:34:53;100420.63;;;15.61;100.00
63808;BME280;49961;43.970;22.868;2022-09-29T01:38:41;100422.81;;;15.48;100.00
63808;BME280;49961;43.970;22.868;2022-09-29T01:39:58;100421.44;;;15.53;100.00
63808;BME280;49961;43.970;22.868;2022-09-29T01:41:19;100434.44;;;15.56;100.00
63808;BME280;49961;43.970;22.868;2022-09-29T01:42:26;100434.44;;;15.56;100.00
63808;BME280;49961;43.970;22.868;2022-09-29T01:43:34;100434.44;;;15.56;100.00
63808;BME280;49961;43.970;22.868;2022-09-29T01:44:53;100433.97;;;15.57;100.00
63808;BME280;49961;43.970;22.868;2022-09-29T01:46:11;100440.34;;;15.58;100.00
63808;BME280;49961;43.970;22.868;2022-09-29T01:47:27;100447.63;;;15.55;100.00
63808;BME280;49961;43.970;22.868;2022-09-29T01:48:33;100441.59;;;15.57;100.00
63808;BME280;49961;43.970;22.868;2022-09-29T01:49:39;100371.56;;;15.10;100.00
63808;BME280;49961;43.970;22.868;2022-09-29T01:50:44;100440.03;;;15.56;100.00
63808;BME280;49961;43.970;22.868;2022-09-29T01:51:53;100440.03;;;15.56;100.00
63808;BME280;49961;43.970;22.868;2022-09-29T01:53:02;100440.06;;;15.47;100.00
63808;BME280;49961;43.970;22.868;2022-09-29T01:54:09;100442.53;;;15.54;100.00
63808;BME280;49961;43.970;22.868;2022-09-29T01:55:18;100446.09;;;15.54;100.00
63808;BME280;49961;43.970;22.868;2022-09-29T01:56:48;100444.84;;;15.55;100.00
63808;BME280;49961;43.970;22.868;2022-09-29T01:58:06;100443.31;;;15.54;100.00
63808;BME280;49961;43.970;22.868;2022-09-29T01:59:24;100435.41;;;15.53;100.00
63808;BME280;49961;43.970;22.868;2022-09-29T02:00:28;100431.19;;;15.48;100.00
63808;BME280;49961;43.970;22.868;2022-09-29T02:01:34;100433.34;;;15.53;100.00
63808;BME280;49961;43.970;22.868;2022-09-29T02:03:53;100437.41;;;15.52;100.00
63808;BME280;49961;43.970;22.868;2022-09-29T02:05:00;100435.06;;;15.51;100.00
63808;BME280;49961;43.970;22.868;2022-09-29T02:06:11;100362.28;;;15.04;100.00
63808;BME280;49961;43.970;22.868;2022-09-29T02:07:24;100438.66;;;15.51;100.00
63808;BME280;49961;43.970;22.868;2022-09-29T02:08:32;100436.66;;;15.52;100.00
63808;BME280;49961;43.970;22.868;2022-09-29T02:09:39;100348.03;;;14.93;100.00
63808;BME280;49961;43.970;22.868;2022-09-29T02:11:51;100445.31;;;15.54;100.00
63808;BME280;49961;43.970;22.868;2022-09-29T02:12:54;100437.72;;;15.54;100.00
63808;BME280;49961;43.970;22.868;2022-09-29T02:14:15;100441.28;;;15.55;100.00
63808;BME280;49961;43.970;22.868;2022-09-29T02:15:22;100373.72;;;15.15;100.00
63808;BME280;49961;43.970;22.868;2022-09-29T02:16:29;100440.50;;;15.54;100.00
63808;BME280;49961;43.970;22.868;2022-09-29T02:17:35;100441.28;;;15.55;100.00
63808;BME280;49961;43.970;22.868;2022-09-29T02:18:51;100408.28;;;15.35;100.00
63808;BME280;49961;43.970;22.868;2022-09-29T02:19:52;100443.13;;;15.58;100.00
63808;BME280;49961;43.970;22.868;2022-09-29T02:20:53;100443.13;;;15.58;100.00
63808;BME280;49961;43.970;22.868;2022-09-29T02:21:54;100445.94;;;15.58;100.00
63808;BME280;49961;43.970;22.868;2022-09-29T02:22:55;100425.31;;;15.46;100.00
63808;BME280;49961;43.970;22.868;2022-09-29T02:23:55;100453.34;;;15.61;100.00
63808;BME280;49961;43.970;22.868;2022-09-29T02:24:58;100418.19;;;15.45;100.00
63808;BME280;49961;43.970;22.868;2022-09-29T02:25:59;100406.59;;;15.38;100.00
63808;BME280;49961;43.970;22.868;2022-09-29T02:27:01;100437.84;;;15.60;100.00
63808;BME280;49961;43.970;22.868;2022-09-29T02:28:02;100439.88;;;15.59;100.00
63808;BME280;49961;43.970;22.868;2022-09-29T02:29:03;100439.09;;;15.59;100.00
63808;BME280;49961;43.970;22.868;2022-09-29T02:30:05;100437.09;;;15.59;100.00
63808;BME280;49961;43.970;22.868;2022-09-29T02:31:06;100443.44;;;15.60;100.00
63808;BME280;49961;43.970;22.868;2022-09-29T02:32:08;100413.53;;;15.42;100.00
63808;BME280;49961;43.970;22.868;2022-09-29T02:33:23;100433.22;;;15.57;100.00
63808;BME280;49961;43.970;22.868;2022-09-29T02:34:24;100443.44;;;15.60;100.00
63808;BME280;49961;43.970;22.868;2022-09-29T02:35:29;100434.00;;;15.48;100.00
63808;BME280;49961;43.970;22.868;2022-09-29T02:38:10;100448.56;;;15.52;100.00
63808;BME280;49961;43.970;22.868;2022-09-29T02:39:20;100453.53;;;15.48;100.00
63808;BME280;49961;43.970;22.868;2022-09-29T02:45:27;100444.41;;;15.48;100.00
63808;BME280;49961;43.970;22.868;2022-09-29T02:51:56;100461.78;;;15.43;100.00
63808;BME280;49961;43.970;22.868;2022-09-29T02:58:14;100473.88;;;15.49;100.00
63808;BME280;49961;43.970;22.868;2022-09-29T02:59:21;100390.66;;;15.02;100.00
63808;BME280;49961;43.970;22.868;2022-09-29T03:00:25;100472.44;;;15.53;100.00
63808;BME280;49961;43.970;22.868;2022-09-29T03:01:30;100459.75;;;15.52;100.00
63808;BME280;49961;43.970;22.868;2022-09-29T03:02:30;100468.44;;;15.54;100.00
63808;BME280;49961;43.970;22.868;2022-09-29T03:03:30;100468.44;;;15.54;100.00
63808;BME280;49961;43.970;22.868;2022-09-29T03:04:31;100472.00;;;15.55;100.00
63808;BME280;49961;43.970;22.868;2022-09-29T03:05:32;100478.38;;;15.55;100.00
63808;BME280;49961;43.970;22.868;2022-09-29T03:06:32;100467.38;;;15.52;100.00
63808;BME280;49961;43.970;22.868;2022-09-29T03:07:34;100481.00;;;15.59;100.00
63808;BME280;49961;43.970;22.868;2022-09-29T03:08:34;100468.56;;;15.60;100.00
63808;BME280;49961;43.970;22.868;2022-09-29T03:09:35;100475.38;;;15.68;100.00
63808;BME280;49961;43.970;22.868;2022-09-29T03:10:35;100467.63;;;15.63;100.00
63808;BME280;49961;43.970;22.868;2022-09-29T03:11:36;100471.97;;;15.64;100.00
63808;BME280;49961;43.970;22.868;2022-09-29T03:12:37;100461.72;;;15.61;100.00
63808;BME280;49961;43.970;22.868;2022-09-29T03:13:37;100467.47;;;15.57;100.00
63808;BME280;49961;43.970;22.868;2022-09-29T03:14:38;100456.31;;;15.57;100.00
63808;BME280;49961;43.970;22.868;2022-09-29T03:15:38;100460.34;;;15.56;100.00
63808;BME280;49961;43.970;22.868;2022-09-29T03:16:39;100430.91;;;15.37;100.00
63808;BME280;49961;43.970;22.868;2022-09-29T03:17:40;100460.19;;;15.60;100.00
63808;BME280;49961;43.970;22.868;2022-09-29T03:18:40;100461.25;;;15.62;100.00
63808;BME280;49961;43.970;22.868;2022-09-29T03:19:41;100445.59;;;15.56;100.00
63808;BME280;49961;43.970;22.868;2022-09-29T03:20:41;100451.81;;;15.60;100.00
63808;BME280;49961;43.970;22.868;2022-09-29T03:21:41;100461.59;;;15.64;100.00
63808;BME280;49961;43.970;22.868;2022-09-29T03:22:42;100460.34;;;15.65;100.00
63808;BME280;49961;43.970;22.868;2022-09-29T03:23:42;100455.84;;;15.59;100.00
63808;BME280;49961;43.970;22.868;2022-09-29T03:24:43;100456.28;;;15.66;100.00
63808;BME280;49961;43.970;22.868;2022-09-29T03:25:43;100459.72;;;15.61;100.00
63808;BME280;49961;43.970;22.868;2022-09-29T03:26:44;100459.09;;;15.66;100.00
63808;BME280;49961;43.970;22.868;2022-09-29T03:27:44;100466.22;;;15.67;100.00
63808;BME280;49961;43.970;22.868;2022-09-29T03:28:45;100472.13;;;15.69;100.00
63808;BME280;49961;43.970;22.868;2022-09-29T03:29:46;100459.09;;;15.66;100.00
63808;BME280;49961;43.970;22.868;2022-09-29T03:30:46;100477.53;;;15.73;100.00
63808;BME280;49961;43.970;22.868;2022-09-29T03:31:47;100473.50;;;15.74;100.00
63808;BME280;49961;43.970;22.868;2022-09-29T03:32:48;100475.03;;;15.75;100.00
63808;BME280;49961;43.970;22.868;2022-09-29T03:33:48;100473.78;;;15.76;100.00
63808;BME280;49961;43.970;22.868;2022-09-29T03:34:49;100467.91;;;15.74;100.00
63808;BME280;49961;43.970;22.868;2022-09-29T03:35:49;100463.56;;;15.73;100.00
63808;BME280;49961;43.970;22.868;2022-09-29T03:36:49;100455.94;;;15.73;100.00
63808;BME280;49961;43.970;22.868;2022-09-29T03:37:50;100442.78;;;15.65;100.00
63808;BME280;49961;43.970;22.868;2022-09-29T03:38:50;100454.88;;;15.71;100.00
63808;BME280;49961;43.970;22.868;2022-09-29T03:39:51;100457.03;;;15.76;100.00
63808;BME280;49961;43.970;22.868;2022-09-29T03:40:51;100450.22;;;15.77;100.00
63808;BME280;49961;43.970;22.868;2022-09-29T03:41:52;100448.97;;;15.78;100.00
63808;BME280;49961;43.970;22.868;2022-09-29T03:42:52;100451.75;;;15.78;100.00
63808;BME280;49961;43.970;22.868;2022-09-29T03:43:53;100454.56;;;15.78;100.00
63808;BME280;49961;43.970;22.868;2022-09-29T03:44:53;100412.25;;;15.52;100.00
63808;BME280;49961;43.970;22.868;2022-09-29T03:45:56;100454.56;;;15.78;100.00
63808;BME280;49961;43.970;22.868;2022-09-29T03:46:56;100460.13;;;15.78;100.00
63808;BME280;49961;43.970;22.868;2022-09-29T03:47:57;100464.94;;;15.77;100.00
63808;BME280;49961;43.970;22.868;2022-09-29T03:48:57;100460.59;;;15.76;100.00
63808;BME280;49961;43.970;22.868;2022-09-29T03:49:58;100460.59;;;15.76;100.00
63808;BME280;49961;43.970;22.868;2022-09-29T03:50:58;100463.41;;;15.76;100.00
63808;BME280;49961;43.970;22.868;2022-09-29T03:51:59;100465.13;;;15.74;100.00
63808;BME280;49961;43.970;22.868;2022-09-29T03:53:01;100462.78;;;15.72;100.00
63808;BME280;49961;43.970;22.868;2022-09-29T03:54:01;100465.56;;;15.72;100.00
63808;BME280;49961;43.970;22.868;2022-09-29T03:55:02;100441.72;;;15.62;100.00
63808;BME280;49961;43.970;22.868;2022-09-29T03:56:02;100451.63;;;15.63;100.00
63808;BME280;49961;43.970;22.868;2022-09-29T03:57:03;100456.28;;;15.66;100.00
63808;BME280;49961;43.970;22.868;2022-09-29T03:58:03;100430.72;;;15.50;100.00
63808;BME280;49961;43.970;22.868;2022-09-29T03:59:05;100448.53;;;15.61;100.00
63808;BME280;49961;43.970;22.868;2022-09-29T04:00:08;100462.66;;;15.67;100.00
63808;BME280;49961;43.970;22.868;2022-09-29T04:01:08;100451.16;;;15.65;100.00
63808;BME280;49961;43.970;22.868;2022-09-29T04:02:09;100452.88;;;15.62;100.00
63808;BME280;49961;43.970;22.868;2022-09-29T04:03:09;100449.78;;;15.60;100.00
63808;BME280;49961;43.970;22.868;2022-09-29T04:04:10;100456.47;;;15.54;100.00
63808;BME280;49961;43.970;22.868;2022-09-29T04:05:11;100451.06;;;15.50;100.00
63808;BME280;49961;43.970;22.868;2022-09-29T04:06:12;100455.56;;;15.48;100.00
63808;BME280;49961;43.970;22.868;2022-09-29T04:07:12;100460.84;;;15.46;100.00
63808;BME280;49961;43.970;22.868;2022-09-29T04:08:13;100446.75;;;15.40;100.00
63808;BME280;49961;43.970;22.868;2022-09-29T04:09:14;100424.41;;;15.31;100.00
63808;BME280;49961;43.970;22.868;2022-09-29T04:10:14;100447.50;;;15.41;100.00
63808;BME280;49961;43.970;22.868;2022-09-29T04:11:15;100449.09;;;15.42;100.00
63808;BME280;49961;43.970;22.868;2022-09-29T04:12:15;100443.50;;;15.42;100.00
63808;BME280;49961;43.970;22.868;2022-09-29T04:13:16;100445.06;;;15.34;100.00
63808;BME280;49961;43.970;22.868;2022-09-29T04:14:16;100446.28;;;15.42;100.00
63808;BME280;49961;43.970;22.868;2022-09-29T04:15:17;100443.97;;;15.40;100.00
63808;BME280;49961;43.970;22.868;2022-09-29T04:16:17;100452.34;;;15.40;100.00
63808;BME280;49961;43.970;22.868;2022-09-29T04:17:17;100429.22;;;15.31;100.00
63808;BME280;49961;43.970;22.868;2022-09-29T04:18:18;100448.00;;;15.39;100.00
63808;BME280;49961;43.970;22.868;2022-09-29T04:19:18;100452.00;;;15.38;100.00
63808;BME280;49961;43.970;22.868;2022-09-29T04:20:19;100452.50;;;15.37;100.00
63808;BME280;49961;43.970;22.868;2022-09-29T04:21:19;100444.59;;;15.35;100.00
63808;BME280;49961;43.970;22.868;2022-09-29T04:22:20;100397.94;;;15.00;100.00
63808;BME280;49961;43.970;22.868;2022-09-29T04:23:20;100429.09;;;15.16;100.00
63808;BME280;49961;43.970;22.868;2022-09-29T04:24:22;100441.94;;;15.23;100.00
63808;BME280;49961;43.970;22.868;2022-09-29T04:25:22;100448.44;;;15.29;100.00
63808;BME280;49961;43.970;22.868;2022-09-29T04:26:23;100450.94;;;15.27;100.00
63808;BME280;49961;43.970;22.868;2022-09-29T04:27:23;100449.41;;;15.26;100.00
63808;BME280;49961;43.970;22.868;2022-09-29T04:28:24;100448.47;;;15.20;100.00
63808;BME280;49961;43.970;22.868;2022-09-29T04:29:25;100448.94;;;15.18;100.00
63808;BME280;49961;43.970;22.868;2022-09-29T04:30:25;100449.41;;;15.17;100.00
63808;BME280;49961;43.970;22.868;2022-09-29T04:31:26;100439.63;;;15.12;100.00
63808;BME280;49961;43.970;22.868;2022-09-29T04:32:26;100444.59;;;15.17;100.00
63808;BME280;49961;43.970;22.868;2022-09-29T04:33:27;100404.00;;;14.89;100.00
63808;BME280;49961;43.970;22.868;2022-09-29T04:34:29;100418.41;;;14.97;100.00
63808;BME280;49961;43.970;22.868;2022-09-29T04:35:29;100427.09;;;14.99;100.00
63808;BME280;49961;43.970;22.868;2022-09-29T04:36:30;100454.53;;;15.18;100.00
63808;BME280;49961;43.970;22.868;2022-09-29T04:37:30;100407.88;;;14.92;100.00
63808;BME280;49961;43.970;22.868;2022-09-29T04:38:31;100457.16;;;15.22;100.00
63808;BME280;49961;43.970;22.868;2022-09-29T04:39:31;100460.25;;;15.24;100.00
63808;BME280;49961;43.970;22.868;2022-09-29T04:40:32;100451.88;;;15.24;100.00
63808;BME280;49961;43.970;22.868;2022-09-29T04:41:32;100459.78;;;15.25;100.00
63808;BME280;49961;43.970;22.868;2022-09-29T04:42:35;100445.84;;;15.16;100.00
63808;BME280;49961;43.970;22.868;2022-09-29T04:43:35;100459.00;;;15.25;100.00
63808;BME280;49961;43.970;22.868;2022-09-29T04:44:39;100445.22;;;15.12;100.00
63808;BME280;49961;43.970;22.868;2022-09-29T04:45:39;100459.63;;;15.29;100.00
63808;BME280;49961;43.970;22.868;2022-09-29T04:46:40;100463.47;;;15.31;100.00
63808;BME280;49961;43.970;22.868;2022-09-29T04:47:43;100433.75;;;15.10;100.00
63808;BME280;49961;43.970;22.868;2022-09-29T04:48:43;100463.47;;;15.31;100.00
63808;BME280;49961;43.970;22.868;2022-09-29T04:49:44;100468.47;;;15.36;100.00
63808;BME280;49961;43.970;22.868;2022-09-29T04:50:44;100458.84;;;15.37;100.00
63808;BME280;49961;43.970;22.868;2022-09-29T04:51:45;100466.28;;;15.40;100.00
63808;BME280;49961;43.970;22.868;2022-09-29T04:52:46;100466.59;;;15.42;100.00
63808;BME280;49961;43.970;22.868;2022-09-29T04:53:46;100466.91;;;15.44;100.00
63808;BME280;49961;43.970;22.868;2022-09-29T04:54:47;100472.00;;;15.46;100.00
63808;BME280;49961;43.970;22.868;2022-09-29T04:55:47;100469.53;;;15.48;100.00
63808;BME280;49961;43.970;22.868;2022-09-29T04:56:49;100470.63;;;15.50;100.00
63808;BME280;49961;43.970;22.868;2022-09-29T04:57:55;100438.38;;;15.40;100.00
63808;BME280;49961;43.970;22.868;2022-09-29T04:58:59;100464.41;;;15.55;100.00
63808;BME280;49961;43.970;22.868;2022-09-29T04:59:59;100475.88;;;15.57;100.00
63808;BME280;49961;43.970;22.868;2022-09-29T05:01:08;100437.41;;;15.43;100.00
63808;BME280;49961;43.970;22.868;2022-09-29T05:02:09;100467.47;;;15.57;100.00
63808;BME280;49961;43.970;22.868;2022-09-29T05:03:10;100457.72;;;15.53;100.00
63808;BME280;49961;43.970;22.868;2022-09-29T05:04:10;100464.22;;;15.59;100.00
63808;BME280;49961;43.970;22.868;2022-09-29T05:05:12;100464.53;;;15.61;100.00
63808;BME280;49961;43.970;22.868;2022-09-29T05:06:13;100461.13;;;15.57;100.00
63808;BME280;49961;43.970;22.868;2022-09-29T05:07:14;100466.22;;;15.58;100.00
63808;BME280;49961;43.970;22.868;2022-09-29T05:08:14;100463.44;;;15.58;100.00
63808;BME280;49961;43.970;22.868;2022-09-29T05:09:15;100462.38;;;15.56;100.00
63808;BME280;49961;43.970;22.868;2022-09-29T05:10:16;100456.81;;;15.47;100.00
63808;BME280;49961;43.970;22.868;2022-09-29T05:11:16;100464.88;;;15.54;100.00
63808;BME280;49961;43.970;22.868;2022-09-29T05:12:17;100464.53;;;15.61;100.00
63808;BME280;49961;43.970;22.868;2022-09-29T05:13:17;100474.59;;;15.67;100.00
63808;BME280;49961;43.970;22.868;2022-09-29T05:14:17;100471.16;;;15.72;100.00
63808;BME280;49961;43.970;22.868;2022-09-29T05:15:18;100393.25;;;15.24;100.00
63808;BME280;49961;43.970;22.868;2022-09-29T05:16:19;100471.13;;;15.81;100.00
63808;BME280;49961;43.970;22.868;2022-09-29T05:17:19;100475.63;;;15.88;100.00
63808;BME280;49961;43.970;22.868;2022-09-29T05:18:20;100474.97;;;15.93;100.00
63808;BME280;49961;43.970;22.868;2022-09-29T05:19:20;100481.47;;;15.99;100.00
63808;BME280;49961;43.970;22.868;2022-09-29T05:20:21;100480.03;;;16.03;100.00
63808;BME280;49961;43.970;22.868;2022-09-29T05:21:21;100480.66;;;16.07;100.00
63808;BME280;49961;43.970;22.868;2022-09-29T05:22:22;100482.81;;;16.12;100.00
63808;BME280;49961;43.970;22.868;2022-09-29T05:23:23;100465.88;;;16.07;100.00
63808;BME280;49961;43.970;22.868;2022-09-29T05:24:24;100485.25;;;16.19;100.00
63808;BME280;49961;43.970;22.868;2022-09-29T05:25:26;100462.16;;;16.10;100.00
63808;BME280;49961;43.970;22.868;2022-09-29T05:26:27;100492.03;;;16.27;100.00
63808;BME280;49961;43.970;22.868;2022-09-29T05:27:27;100484.72;;;16.30;100.00
63808;BME280;49961;43.970;22.868;2022-09-29T05:28:28;100486.09;;;16.34;100.00
63808;BME280;49961;43.970;22.868;2022-09-29T05:29:28;100491.06;;;16.39;100.00
63808;BME280;49961;43.970;22.868;2022-09-29T05:30:29;100487.63;;;16.44;100.00
63808;BME280;49961;43.970;22.868;2022-09-29T05:31:29;100495.34;;;16.49;100.00
63808;BME280;49961;43.970;22.868;2022-09-29T05:32:29;100499.53;;;16.54;100.00
63808;BME280;49961;43.970;22.868;2022-09-29T05:33:30;100494.53;;;16.58;100.00
63808;BME280;49961;43.970;22.868;2022-09-29T05:34:31;100487.19;;;16.60;100.00
63808;BME280;49961;43.970;22.868;2022-09-29T05:35:31;100454.41;;;16.37;100.00
63808;BME280;49961;43.970;22.868;2022-09-29T05:36:32;100490.00;;;16.60;100.00
63808;BME280;49961;43.970;22.868;2022-09-29T05:37:33;100495.53;;;16.69;100.00
63808;BME280;49961;43.970;22.868;2022-09-29T05:38:34;100495.34;;;16.73;100.00
63808;BME280;49961;43.970;22.868;2022-09-29T05:39:34;100492.47;;;16.67;100.00
63808;BME280;49961;43.970;22.868;2022-09-29T05:40:36;100506.97;;;16.80;100.00
63808;BME280;49961;43.970;22.868;2022-09-29T05:41:36;100507.56;;;16.84;100.00
63808;BME280;49961;43.970;22.868;2022-09-29T05:42:37;100508.63;;;16.87;100.00
63808;BME280;49961;43.970;22.868;2022-09-29T05:43:40;100485.59;;;16.68;100.00
63808;BME280;49961;43.970;22.868;2022-09-29T05:44:43;100507.03;;;16.95;100.00
63808;BME280;49961;43.970;22.868;2022-09-29T05:45:44;100513.19;;;16.99;100.00
63808;BME280;49961;43.970;22.868;2022-09-29T05:46:44;100509.31;;;16.96;100.00
63808;BME280;49961;43.970;22.868;2022-09-29T05:47:45;100510.41;;;16.99;100.00
63808;BME280;49961;43.970;22.868;2022-09-29T05:48:46;100506.66;;;17.02;100.00
63808;BME280;49961;43.970;22.868;2022-09-29T05:49:46;100506.47;;;17.05;100.00
63808;BME280;49961;43.970;22.868;2022-09-29T05:50:47;100513.91;;;17.08;100.00
63808;BME280;49961;43.970;22.868;2022-09-29T05:51:47;100523.66;;;17.13;100.00
63808;BME280;49961;43.970;22.868;2022-09-29T05:52:48;100438.69;;;16.63;100.00
63808;BME280;49961;43.970;22.868;2022-09-29T05:53:50;100508.81;;;17.21;100.00
63808;BME280;49961;43.970;22.868;2022-09-29T05:54:51;100498.00;;;17.14;100.00
63808;BME280;49961;43.970;22.868;2022-09-29T05:55:51;100508.94;;;17.27;100.00